AAL2014 KRIC-KCLT
Flight info
| Callsign | AAL2014 |
|---|---|
| Flight time | 0h 44m |
| Altitude | 34000 |
| Route | KALLI7 READE AIROW CHSLY6 |
| Aircraft | B738/M-SDE2E3FGHIRWXY/LB1 |
Departure
| Time | 2026-05-05 01:49 |
|---|---|
| Airport | Richmond International Airport (KRIC) |
Arrival
| Time | 2026-05-05 02:34 |
|---|---|
| Airport | Charlotte Douglas International Airport (KCLT) |
| Time | Latitude | Longitude | Altitude | Speed | Heading |
|---|---|---|---|---|---|
| 2026-05-05 01:29 | 37.50892 | -77.32972 | 170 ft | 0 kts | 287° |
| 2026-05-05 01:42 | 37.50892 | -77.32971 | 170 ft | 1 kts | 287° |
| 2026-05-05 01:43 | 37.50885 | -77.32944 | 171 ft | 4 kts | 295° |
| 2026-05-05 01:43 | 37.50870 | -77.32917 | 171 ft | 4 kts | 324° |
| 2026-05-05 01:43 | 37.50848 | -77.32907 | 171 ft | 3 kts | 12° |
| 2026-05-05 01:43 | 37.50846 | -77.32908 | 171 ft | 1 kts | 14° |
| 2026-05-05 01:45 | 37.50855 | -77.32905 | 171 ft | 4 kts | 14° |
| 2026-05-05 01:46 | 37.50915 | -77.32888 | 170 ft | 14 kts | 12° |
| 2026-05-05 01:46 | 37.51017 | -77.32858 | 168 ft | 15 kts | 16° |
| 2026-05-05 01:46 | 37.51118 | -77.32825 | 170 ft | 15 kts | 13° |
| 2026-05-05 01:46 | 37.51216 | -77.32796 | 170 ft | 14 kts | 13° |
| 2026-05-05 01:47 | 37.51309 | -77.32768 | 170 ft | 13 kts | 13° |
| 2026-05-05 01:47 | 37.51398 | -77.32743 | 170 ft | 13 kts | 13° |
| 2026-05-05 01:47 | 37.51484 | -77.32717 | 171 ft | 13 kts | 13° |
| 2026-05-05 01:47 | 37.51568 | -77.32692 | 171 ft | 12 kts | 14° |
| 2026-05-05 01:48 | 37.51631 | -77.32642 | 171 ft | 11 kts | 70° |
| 2026-05-05 01:48 | 37.51639 | -77.32544 | 172 ft | 11 kts | 89° |
| 2026-05-05 01:48 | 37.51636 | -77.32449 | 174 ft | 11 kts | 95° |
| 2026-05-05 01:48 | 37.51624 | -77.32356 | 175 ft | 11 kts | 107° |
| 2026-05-05 01:49 | 37.51566 | -77.32278 | 175 ft | 22 kts | 145° |
| 2026-05-05 01:49 | 37.51216 | -77.31995 | 172 ft | 100 kts | 147° |
| 2026-05-05 01:49 | 37.50406 | -77.31350 | 228 ft | 163 kts | 149° |
| 2026-05-05 01:49 | 37.49440 | -77.30576 | 1047 ft | 167 kts | 147° |
| 2026-05-05 01:50 | 37.48353 | -77.30107 | 1946 ft | 175 kts | 183° |
| 2026-05-05 01:50 | 37.47170 | -77.30743 | 2313 ft | 205 kts | 225° |
| 2026-05-05 01:50 | 37.46592 | -77.32453 | 2688 ft | 227 kts | 264° |
| 2026-05-05 01:50 | 37.46637 | -77.34458 | 3426 ft | 234 kts | 270° |
| 2026-05-05 01:51 | 37.46776 | -77.36556 | 4066 ft | 243 kts | 271° |
| 2026-05-05 01:51 | 37.46892 | -77.38659 | 5028 ft | 239 kts | 270° |
| 2026-05-05 01:51 | 37.46982 | -77.40744 | 5885 ft | 240 kts | 270° |
| 2026-05-05 01:51 | 37.47038 | -77.42874 | 6558 ft | 248 kts | 268° |
| 2026-05-05 01:52 | 37.47059 | -77.45069 | 7278 ft | 253 kts | 268° |
| 2026-05-05 01:52 | 37.47085 | -77.47268 | 8161 ft | 251 kts | 269° |
| 2026-05-05 01:52 | 37.47119 | -77.49484 | 8864 ft | 257 kts | 270° |
| 2026-05-05 01:52 | 37.47193 | -77.51775 | 9445 ft | 266 kts | 270° |
| 2026-05-05 01:53 | 37.47224 | -77.54087 | 10303 ft | 264 kts | 269° |
| 2026-05-05 01:53 | 37.47206 | -77.56431 | 10817 ft | 277 kts | 268° |
| 2026-05-05 01:53 | 37.47029 | -77.58905 | 10992 ft | 301 kts | 265° |
| 2026-05-05 01:53 | 37.46794 | -77.61622 | 11166 ft | 323 kts | 265° |
| 2026-05-05 01:54 | 37.46540 | -77.64520 | 11326 ft | 344 kts | 263° |
| 2026-05-05 01:54 | 37.45942 | -77.67518 | 11598 ft | 360 kts | 254° |
| 2026-05-05 01:54 | 37.45128 | -77.70480 | 12109 ft | 367 kts | 253° |
| 2026-05-05 01:54 | 37.44281 | -77.73498 | 12726 ft | 370 kts | 253° |
| 2026-05-05 01:55 | 37.43426 | -77.76562 | 13368 ft | 372 kts | 253° |
| 2026-05-05 01:55 | 37.42573 | -77.79656 | 14021 ft | 375 kts | 254° |
| 2026-05-05 01:55 | 37.41724 | -77.82776 | 14673 ft | 378 kts | 254° |
| 2026-05-05 01:55 | 37.40875 | -77.85924 | 15339 ft | 382 kts | 254° |
| 2026-05-05 01:56 | 37.40024 | -77.89095 | 15982 ft | 384 kts | 254° |
| 2026-05-05 01:56 | 37.39162 | -77.92306 | 16606 ft | 388 kts | 254° |
| 2026-05-05 01:56 | 37.38299 | -77.95523 | 17221 ft | 390 kts | 254° |
| 2026-05-05 01:56 | 37.37429 | -77.98768 | 17797 ft | 393 kts | 254° |
| 2026-05-05 01:57 | 37.36554 | -78.02020 | 18328 ft | 396 kts | 253° |
| 2026-05-05 01:57 | 37.35667 | -78.05311 | 18916 ft | 398 kts | 253° |
| 2026-05-05 01:57 | 37.34775 | -78.08621 | 19481 ft | 401 kts | 254° |
| 2026-05-05 01:57 | 37.33878 | -78.11951 | 20005 ft | 404 kts | 253° |
| 2026-05-05 01:58 | 37.32981 | -78.15270 | 20495 ft | 407 kts | 253° |
| 2026-05-05 01:58 | 37.32067 | -78.18651 | 20978 ft | 409 kts | 253° |
| 2026-05-05 01:58 | 37.31146 | -78.22055 | 21457 ft | 413 kts | 253° |
| 2026-05-05 01:58 | 37.30219 | -78.25475 | 21913 ft | 415 kts | 253° |
| 2026-05-05 01:59 | 37.29282 | -78.28924 | 22342 ft | 418 kts | 253° |
| 2026-05-05 01:59 | 37.28362 | -78.32394 | 22767 ft | 420 kts | 256° |
| 2026-05-05 01:59 | 37.27972 | -78.36014 | 23128 ft | 420 kts | 270° |
| 2026-05-05 01:59 | 37.27925 | -78.39686 | 23568 ft | 421 kts | 270° |
| 2026-05-05 02:00 | 37.27829 | -78.43361 | 23968 ft | 423 kts | 269° |
| 2026-05-05 02:00 | 37.27707 | -78.47072 | 24317 ft | 426 kts | 269° |
| 2026-05-05 02:00 | 37.27572 | -78.50782 | 24663 ft | 429 kts | 269° |
| 2026-05-05 02:00 | 37.27431 | -78.54518 | 25035 ft | 431 kts | 268° |
| 2026-05-05 02:01 | 37.27288 | -78.58274 | 25413 ft | 432 kts | 269° |
| 2026-05-05 02:01 | 37.27143 | -78.62052 | 25742 ft | 434 kts | 268° |
| 2026-05-05 02:01 | 37.26998 | -78.65837 | 26079 ft | 435 kts | 268° |
| 2026-05-05 02:01 | 37.26854 | -78.69606 | 26467 ft | 435 kts | 268° |
| 2026-05-05 02:02 | 37.26708 | -78.73397 | 26923 ft | 433 kts | 268° |
| 2026-05-05 02:02 | 37.26562 | -78.77162 | 27420 ft | 431 kts | 268° |
| 2026-05-05 02:02 | 37.26417 | -78.80904 | 27888 ft | 429 kts | 269° |
| 2026-05-05 02:02 | 37.26274 | -78.84568 | 27956 ft | 428 kts | 269° |
| 2026-05-05 02:03 | 37.26128 | -78.88267 | 27988 ft | 426 kts | 269° |
| 2026-05-05 02:03 | 37.25979 | -78.91995 | 27992 ft | 428 kts | 269° |
| 2026-05-05 02:03 | 37.25831 | -78.95727 | 27995 ft | 428 kts | 268° |
| 2026-05-05 02:03 | 37.25680 | -78.99461 | 27997 ft | 429 kts | 268° |
| 2026-05-05 02:04 | 37.25528 | -79.03197 | 27993 ft | 430 kts | 268° |
| 2026-05-05 02:04 | 37.25373 | -79.06945 | 27992 ft | 431 kts | 268° |
| 2026-05-05 02:04 | 37.25218 | -79.10701 | 27995 ft | 431 kts | 268° |
| 2026-05-05 02:04 | 37.25061 | -79.14460 | 27998 ft | 431 kts | 268° |
| 2026-05-05 02:05 | 37.24812 | -79.18209 | 27990 ft | 433 kts | 261° |
| 2026-05-05 02:05 | 37.23789 | -79.21770 | 28016 ft | 437 kts | 245° |
| 2026-05-05 02:05 | 37.22103 | -79.24972 | 27992 ft | 444 kts | 233° |
| 2026-05-05 02:05 | 37.19830 | -79.27608 | 28008 ft | 451 kts | 221° |
| 2026-05-05 02:06 | 37.14699 | -79.32136 | 28000 ft | 452 kts | 219° |
| 2026-05-05 02:06 | 37.12151 | -79.34347 | 27997 ft | 451 kts | 219° |
| 2026-05-05 02:06 | 37.09586 | -79.36606 | 28005 ft | 451 kts | 220° |
| 2026-05-05 02:07 | 37.04509 | -79.41155 | 27998 ft | 450 kts | 220° |
| 2026-05-05 02:07 | 36.99409 | -79.45681 | 28020 ft | 450 kts | 219° |
| 2026-05-05 02:08 | 36.94249 | -79.50014 | 28019 ft | 450 kts | 218° |
| 2026-05-05 02:08 | 36.89065 | -79.54350 | 28017 ft | 449 kts | 218° |
| 2026-05-05 02:09 | 36.83885 | -79.58712 | 28018 ft | 449 kts | 218° |
| 2026-05-05 02:09 | 36.78732 | -79.63046 | 28029 ft | 449 kts | 218° |
| 2026-05-05 02:10 | 36.73550 | -79.67387 | 28027 ft | 449 kts | 218° |
| 2026-05-05 02:10 | 36.68370 | -79.71720 | 28020 ft | 449 kts | 218° |
| 2026-05-05 02:11 | 36.63182 | -79.76054 | 28016 ft | 449 kts | 218° |
| 2026-05-05 02:11 | 36.58024 | -79.80357 | 28031 ft | 449 kts | 218° |
| 2026-05-05 02:12 | 36.50233 | -79.86843 | 28036 ft | 449 kts | 218° |
| 2026-05-05 02:13 | 36.45061 | -79.91138 | 28026 ft | 448 kts | 218° |
| 2026-05-05 02:13 | 36.39871 | -79.95441 | 28030 ft | 448 kts | 218° |
| 2026-05-05 02:14 | 36.34710 | -79.99714 | 28029 ft | 448 kts | 218° |
| 2026-05-05 02:14 | 36.30416 | -80.03258 | 27962 ft | 433 kts | 218° |
| 2026-05-05 02:14 | 36.27955 | -80.05282 | 27856 ft | 418 kts | 218° |
| 2026-05-05 02:15 | 36.24830 | -80.07854 | 27593 ft | 402 kts | 219° |
| 2026-05-05 02:15 | 36.23266 | -80.09143 | 27292 ft | 399 kts | 219° |
| 2026-05-05 02:15 | 36.20959 | -80.11043 | 26694 ft | 398 kts | 218° |
| 2026-05-05 02:15 | 36.18650 | -80.12946 | 26081 ft | 399 kts | 218° |
| 2026-05-05 02:16 | 36.16346 | -80.14843 | 25524 ft | 397 kts | 218° |
| 2026-05-05 02:16 | 36.14046 | -80.16733 | 24997 ft | 395 kts | 218° |
| 2026-05-05 02:16 | 36.11759 | -80.18610 | 24467 ft | 394 kts | 218° |
| 2026-05-05 02:16 | 36.09499 | -80.20464 | 23938 ft | 392 kts | 217° |
| 2026-05-05 02:17 | 36.07228 | -80.22326 | 23414 ft | 391 kts | 217° |
| 2026-05-05 02:17 | 36.04970 | -80.24177 | 22942 ft | 388 kts | 217° |
| 2026-05-05 02:17 | 36.02732 | -80.26011 | 22504 ft | 384 kts | 217° |
| 2026-05-05 02:17 | 36.00509 | -80.27829 | 22061 ft | 378 kts | 217° |
| 2026-05-05 02:18 | 35.98393 | -80.29556 | 21567 ft | 368 kts | 217° |
| 2026-05-05 02:18 | 35.96285 | -80.31277 | 21026 ft | 360 kts | 217° |
| 2026-05-05 02:18 | 35.94189 | -80.32990 | 20364 ft | 356 kts | 218° |
| 2026-05-05 02:18 | 35.92134 | -80.34670 | 19703 ft | 353 kts | 218° |
| 2026-05-05 02:19 | 35.90124 | -80.36310 | 19053 ft | 350 kts | 218° |
| 2026-05-05 02:19 | 35.88105 | -80.37957 | 18419 ft | 346 kts | 217° |
| 2026-05-05 02:19 | 35.86109 | -80.39582 | 17875 ft | 340 kts | 217° |
| 2026-05-05 02:19 | 35.84172 | -80.41153 | 17594 ft | 326 kts | 218° |
| 2026-05-05 02:20 | 35.82340 | -80.42704 | 17263 ft | 314 kts | 221° |
| 2026-05-05 02:20 | 35.80647 | -80.44341 | 16799 ft | 309 kts | 223° |
| 2026-05-05 02:20 | 35.78977 | -80.45993 | 16256 ft | 307 kts | 223° |
| 2026-05-05 02:20 | 35.77326 | -80.47608 | 15701 ft | 306 kts | 223° |
| 2026-05-05 02:21 | 35.75660 | -80.49221 | 15166 ft | 304 kts | 222° |
| 2026-05-05 02:21 | 35.73836 | -80.50545 | 14607 ft | 309 kts | 204° |
| 2026-05-05 02:21 | 35.71789 | -80.51322 | 14088 ft | 308 kts | 201° |
| 2026-05-05 02:21 | 35.69735 | -80.52070 | 13552 ft | 306 kts | 201° |
| 2026-05-05 02:22 | 35.67716 | -80.52819 | 13015 ft | 304 kts | 201° |
| 2026-05-05 02:22 | 35.65714 | -80.53576 | 12514 ft | 301 kts | 202° |
| 2026-05-05 02:22 | 35.63718 | -80.54340 | 11984 ft | 299 kts | 202° |
| 2026-05-05 02:22 | 35.61738 | -80.55101 | 11495 ft | 297 kts | 202° |
| 2026-05-05 02:23 | 35.59815 | -80.55856 | 11007 ft | 293 kts | 205° |
| 2026-05-05 02:23 | 35.58146 | -80.57218 | 10458 ft | 282 kts | 232° |
| 2026-05-05 02:23 | 35.57192 | -80.59266 | 9944 ft | 276 kts | 252° |
| 2026-05-05 02:23 | 35.56865 | -80.61525 | 9391 ft | 275 kts | 268° |
| 2026-05-05 02:24 | 35.56836 | -80.63858 | 8828 ft | 275 kts | 269° |
| 2026-05-05 02:24 | 35.56832 | -80.66217 | 8285 ft | 276 kts | 269° |
| 2026-05-05 02:24 | 35.56824 | -80.68540 | 7994 ft | 267 kts | 268° |
| 2026-05-05 02:24 | 35.56808 | -80.70765 | 7682 ft | 259 kts | 268° |
| 2026-05-05 02:25 | 35.56786 | -80.72974 | 7232 ft | 258 kts | 267° |
| 2026-05-05 02:25 | 35.56759 | -80.75172 | 6837 ft | 255 kts | 267° |
| 2026-05-05 02:25 | 35.56733 | -80.77286 | 6616 ft | 245 kts | 266° |
| 2026-05-05 02:25 | 35.56589 | -80.79355 | 6238 ft | 242 kts | 258° |
| 2026-05-05 02:26 | 35.56300 | -80.81370 | 5942 ft | 235 kts | 256° |
| 2026-05-05 02:26 | 35.55985 | -80.83293 | 5717 ft | 227 kts | 255° |
| 2026-05-05 02:26 | 35.55653 | -80.85187 | 5331 ft | 227 kts | 255° |
| 2026-05-05 02:26 | 35.55322 | -80.87074 | 4940 ft | 226 kts | 255° |
| 2026-05-05 02:27 | 35.54986 | -80.88927 | 4576 ft | 225 kts | 254° |
| 2026-05-05 02:27 | 35.54640 | -80.90787 | 4197 ft | 224 kts | 251° |
| 2026-05-05 02:27 | 35.53904 | -80.92394 | 3781 ft | 220 kts | 221° |
| 2026-05-05 02:27 | 35.52608 | -80.93330 | 3452 ft | 215 kts | 204° |
| 2026-05-05 02:28 | 35.51210 | -80.94042 | 3077 ft | 215 kts | 202° |
| 2026-05-05 02:28 | 35.49816 | -80.94729 | 3088 ft | 221 kts | 202° |
| 2026-05-05 02:28 | 35.48392 | -80.95430 | 3030 ft | 220 kts | 201° |
| 2026-05-05 02:28 | 35.46910 | -80.95709 | 3002 ft | 216 kts | 176° |
| 2026-05-05 02:29 | 35.45408 | -80.95534 | 3001 ft | 217 kts | 179° |
| 2026-05-05 02:29 | 35.43916 | -80.95430 | 3004 ft | 217 kts | 179° |
| 2026-05-05 02:29 | 35.42398 | -80.95321 | 3006 ft | 218 kts | 178° |
| 2026-05-05 02:29 | 35.40884 | -80.95200 | 2992 ft | 218 kts | 178° |
| 2026-05-05 02:30 | 35.39368 | -80.95074 | 3004 ft | 219 kts | 179° |
| 2026-05-05 02:30 | 35.37853 | -80.94945 | 3002 ft | 220 kts | 178° |
| 2026-05-05 02:30 | 35.36328 | -80.94811 | 2999 ft | 220 kts | 178° |
| 2026-05-05 02:30 | 35.34813 | -80.94679 | 2993 ft | 215 kts | 178° |
| 2026-05-05 02:31 | 35.33365 | -80.94553 | 2851 ft | 204 kts | 178° |
| 2026-05-05 02:31 | 35.31973 | -80.94434 | 2619 ft | 197 kts | 178° |
| 2026-05-05 02:31 | 35.30630 | -80.94318 | 2357 ft | 189 kts | 178° |
| 2026-05-05 02:31 | 35.29372 | -80.94211 | 2110 ft | 178 kts | 177° |
| 2026-05-05 02:32 | 35.28182 | -80.94108 | 1907 ft | 163 kts | 177° |
| 2026-05-05 02:32 | 35.27106 | -80.94016 | 1665 ft | 150 kts | 177° |
| 2026-05-05 02:32 | 35.26094 | -80.93922 | 1475 ft | 143 kts | 176° |
| 2026-05-05 02:32 | 35.25089 | -80.93823 | 1291 ft | 145 kts | 176° |
| 2026-05-05 02:33 | 35.24092 | -80.93736 | 1108 ft | 144 kts | 178° |
| 2026-05-05 02:33 | 35.23084 | -80.93663 | 888 ft | 146 kts | 175° |
| 2026-05-05 02:33 | 35.22077 | -80.93580 | 735 ft | 141 kts | 177° |
| 2026-05-05 02:33 | 35.21234 | -80.93508 | 718 ft | 93 kts | 176° |
| 2026-05-05 02:34 | 35.20806 | -80.93473 | 717 ft | 31 kts | 175° |
| 2026-05-05 02:34 | 35.20697 | -80.93464 | 717 ft | 15 kts | 181° |
| 2026-05-05 02:34 | 35.20582 | -80.93482 | 717 ft | 13 kts | 192° |
| 2026-05-05 02:34 | 35.20515 | -80.93549 | 714 ft | 13 kts | 274° |
| 2026-05-05 02:35 | 35.20582 | -80.93588 | 717 ft | 11 kts | 355° |
| 2026-05-05 02:35 | 35.20650 | -80.93597 | 715 ft | 9 kts | 352° |
| 2026-05-05 02:35 | 35.20708 | -80.93608 | 714 ft | 8 kts | 350° |
| 2026-05-05 02:35 | 35.20755 | -80.93616 | 715 ft | 6 kts | 2° |
| 2026-05-05 02:36 | 35.20797 | -80.93614 | 720 ft | 7 kts | 2° |
| 2026-05-05 02:36 | 35.20856 | -80.93613 | 716 ft | 10 kts | 358° |
| 2026-05-05 02:36 | 35.20937 | -80.93621 | 716 ft | 13 kts | 355° |
| 2026-05-05 02:36 | 35.21032 | -80.93628 | 717 ft | 15 kts | 355° |
| 2026-05-05 02:37 | 35.21138 | -80.93637 | 718 ft | 16 kts | 355° |
| 2026-05-05 02:37 | 35.21254 | -80.93647 | 719 ft | 17 kts | 355° |
| 2026-05-05 02:37 | 35.21375 | -80.93664 | 721 ft | 18 kts | 339° |
| 2026-05-05 02:37 | 35.21482 | -80.93749 | 721 ft | 19 kts | 319° |
| 2026-05-05 02:38 | 35.21575 | -80.93851 | 722 ft | 18 kts | 319° |
| 2026-05-05 02:38 | 35.21665 | -80.93951 | 721 ft | 16 kts | 317° |
| 2026-05-05 02:38 | 35.21717 | -80.94010 | 722 ft | 0 kts | 317° |
| 2026-05-05 02:39 | 35.21718 | -80.94010 | 722 ft | 1 kts | 317° |
| 2026-05-05 02:39 | 35.21748 | -80.94045 | 725 ft | 9 kts | 316° |